Time;durP1;ratioP1;P1;durP2;ratioP2;P2;SDS_P1;SDS_P2;PMS_P1;PMS_P2;Temp;Humidity;BMP_temperature;BMP_pressure;BME280_temperature;BME280_humidity;BME280_pressure;Samples;Min_cycle;Max_cycle;Signal;HPM_P1;HPM_P2
2021/12/24 00:00:15;;;;;;;7.90;7.00;;;;;;;4.10;82.08;96316.31;5062974;28;20287;-70
2021/12/24 00:02:42;;;;;;;8.60;6.90;;;;;;;4.11;80.65;96308.34;5062682;28;20210;-72
2021/12/24 00:05:09;;;;;;;7.67;6.13;;;;;;;4.10;81.14;96304.09;5067112;28;20198;-72
2021/12/24 00:07:36;;;;;;;6.80;6.10;;;;;;;4.09;81.19;96306.78;5054305;28;20231;-71
2021/12/24 00:10:03;;;;;;;6.00;5.30;;;;;;;4.22;78.13;96297.09;5054400;28;20214;-70
2021/12/24 00:12:33;;;;;;;8.43;6.40;;;;;;;4.23;77.54;96299.63;5054543;28;20206;-72
2021/12/24 00:15:09;;;;;;;8.47;6.30;;;;;;;4.27;77.30;96287.13;5054852;28;20238;-72
2021/12/24 00:17:38;;;;;;;5.63;4.93;;;;;;;4.40;76.05;96295.75;5053899;28;20198;-71
2021/12/24 00:20:23;;;;;;;4.77;4.37;;;;;;;4.53;75.07;96293.06;5054463;28;20225;-72
2021/12/24 00:36:40;;;;;;;4.40;3.67;;;;;;;5.55;66.39;96278.97;5075382;28;20636;-73
2021/12/24 00:39:06;;;;;;;3.90;3.50;;;;;;;5.58;68.05;96280.50;5065671;28;20206;-71
2021/12/24 00:41:32;;;;;;;4.77;3.87;;;;;;;5.64;67.15;96280.84;5074096;28;20524;-71
2021/12/24 00:43:59;;;;;;;4.10;3.80;;;;;;;5.77;65.76;96284.19;5076035;28;20225;-72
2021/12/24 00:46:27;;;;;;;4.33;3.93;;;;;;;5.89;65.10;96282.38;5070704;28;20222;-72
2021/12/24 00:48:55;;;;;;;3.77;3.47;;;;;;;5.91;66.55;96291.81;5060355;28;20234;-72
2021/12/24 00:51:30;;;;;;;4.47;3.57;;;;;;;5.87;67.15;96289.56;5059976;28;20203;-71
2021/12/24 00:56:40;;;;;;;4.00;3.70;;;;;;;5.84;67.97;96284.53;5061779;28;20206;-72
2021/12/24 00:59:07;;;;;;;4.13;3.73;;;;;;;5.77;68.77;96284.19;5059670;28;20199;-72
2021/12/24 01:01:35;;;;;;;4.37;3.97;;;;;;;5.72;68.45;96275.00;5057543;28;20268;-72
2021/12/24 01:04:01;;;;;;;5.30;3.80;;;;;;;5.66;69.39;96271.09;5057258;28;20211;-72
2021/12/24 01:06:28;;;;;;;4.10;3.70;;;;;;;5.62;68.56;96274.06;5062213;28;20199;-72
2021/12/24 01:08:54;;;;;;;3.80;3.50;;;;;;;5.53;71.18;96279.06;5077690;28;20226;-73
2021/12/24 01:11:21;;;;;;;5.63;3.80;;;;;;;5.46;71.52;96279.66;5067301;28;20231;-73
2021/12/24 01:13:47;;;;;;;4.40;3.53;;;;;;;5.37;69.69;96281.25;5057840;28;20222;-71
2021/12/24 01:16:22;;;;;;;5.03;4.10;;;;;;;5.31;70.07;96270.41;5061781;28;20214;-73
2021/12/24 01:18:58;;;;;;;5.67;3.87;;;;;;;5.32;70.88;96282.53;5089369;28;20210;-72
2021/12/24 01:21:38;;;;;;;3.70;3.40;;;;;;;5.27;71.04;96271.59;5067131;28;20190;-71
2021/12/24 01:24:10;;;;;;;4.00;3.70;;;;;;;5.23;71.07;96268.38;5059090;28;20623;-71
2021/12/24 01:26:43;;;;;;;7.10;4.83;;;;;;;5.28;69.70;96278.53;5057361;28;20214;-71
2021/12/24 01:37:56;;;;;;;4.00;3.47;;;;;;;5.53;66.86;96280.84;5062176;28;20233;-71
2021/12/24 01:40:26;;;;;;;4.43;3.90;;;;;;;5.63;64.94;96276.56;5061455;28;20562;-71
2021/12/24 01:42:54;;;;;;;5.00;3.50;;;;;;;5.63;65.93;96268.72;5060812;28;20336;-71
2021/12/24 01:45:23;;;;;;;5.03;3.80;;;;;;;5.64;65.74;96267.72;5063239;28;20246;-72
2021/12/24 01:47:52;;;;;;;5.03;4.00;;;;;;;5.62;68.42;96276.69;5074295;28;20219;-77
2021/12/24 01:50:21;;;;;;;3.93;3.53;;;;;;;5.60;68.32;96276.78;5077986;28;20199;-77
2021/12/24 01:52:50;;;;;;;4.70;3.83;;;;;;;5.55;67.32;96276.34;5079261;28;20219;-76
2021/12/24 01:55:17;;;;;;;3.97;3.63;;;;;;;5.51;67.81;96277.53;5079071;28;20235;-76
2021/12/24 01:57:44;;;;;;;4.23;3.73;;;;;;;5.41;68.06;96263.50;5062303;28;20195;-76
2021/12/24 02:00:14;;;;;;;4.00;3.67;;;;;;;5.36;69.63;96270.88;5056003;28;20243;-73
2021/12/24 02:02:41;;;;;;;4.20;3.80;;;;;;;5.27;69.24;96274.22;5058963;28;20184;-77
2021/12/24 02:05:09;;;;;;;4.23;3.83;;;;;;;5.10;71.01;96262.41;5098216;28;20191;-77
2021/12/24 02:07:37;;;;;;;4.27;3.80;;;;;;;5.01;71.61;96257.88;5077944;28;20226;-78
2021/12/24 02:10:05;;;;;;;6.10;4.20;;;;;;;4.91;71.31;96257.78;5079260;28;20222;-76
2021/12/24 02:12:34;;;;;;;4.33;3.93;;;;;;;4.83;72.24;96265.38;5078563;28;20199;-76
2021/12/24 02:15:01;;;;;;;4.70;4.20;;;;;;;4.83;71.45;96247.03;5077525;28;20187;-75
2021/12/24 02:18:01;;;;;;;4.20;3.80;;;;;;;4.77;71.60;96244.06;5078877;28;20187;-75
2021/12/24 02:28:41;;;;;;;4.90;4.10;;;;;;;4.51;72.91;96206.75;5074758;28;20229;-75
2021/12/24 02:31:09;;;;;;;4.27;3.87;;;;;;;4.49;73.22;96199.03;5077257;28;20201;-76
2021/12/24 02:33:36;;;;;;;5.17;4.43;;;;;;;4.50;73.87;96199.84;5071548;28;20214;-75
2021/12/24 02:36:05;;;;;;;4.10;3.70;;;;;;;4.51;74.10;96193.66;5067354;28;20203;-70
2021/12/24 02:38:32;;;;;;;4.27;3.87;;;;;;;4.57;73.79;96195.81;5064815;28;20207;-72
2021/12/24 02:40:59;;;;;;;4.40;4.00;;;;;;;4.78;72.21;96182.88;5064857;28;20239;-71
2021/12/24 02:43:26;;;;;;;4.30;3.90;;;;;;;4.91;71.98;96183.56;5066794;28;20215;-71
2021/12/24 02:45:58;;;;;;;4.13;3.73;;;;;;;5.06;70.78;96177.16;5085717;28;20207;-70
2021/12/24 02:53:57;;;;;;;3.83;3.53;;;;;;;5.18;71.82;96155.19;5056286;28;20202;-71
2021/12/24 02:56:27;;;;;;;4.17;3.77;;;;;;;5.16;72.78;96157.13;5072695;28;20210;-71
2021/12/24 02:58:54;;;;;;;4.10;3.80;;;;;;;5.08;73.57;96162.13;5074963;28;20622;-71
2021/12/24 03:01:22;;;;;;;4.00;3.60;;;;;;;5.06;73.34;96163.19;5055567;28;20622;-70
2021/12/24 03:03:50;;;;;;;6.43;4.30;;;;;;;4.91;74.06;96168.69;5055948;28;20207;-70
2021/12/24 03:06:20;;;;;;;4.27;3.87;;;;;;;4.96;72.21;96171.78;5054147;28;20532;-72
2021/12/24 03:08:47;;;;;;;4.07;3.57;;;;;;;4.80;73.96;96171.31;5056223;28;20242;-71
2021/12/24 03:11:13;;;;;;;4.13;3.60;;;;;;;4.80;73.20;96171.31;5057288;28;20215;-71
2021/12/24 03:13:41;;;;;;;4.10;3.67;;;;;;;4.86;73.01;96168.22;5065115;28;20210;-71
2021/12/24 03:16:07;;;;;;;4.97;3.57;;;;;;;4.82;72.54;96176.41;5069725;28;20202;-71
2021/12/24 03:18:37;;;;;;;4.10;3.70;;;;;;;4.79;73.00;96167.03;5069499;28;20222;-70
2021/12/24 03:21:09;;;;;;;3.90;3.47;;;;;;;4.72;73.55;96171.06;5065588;28;20289;-70
2021/12/24 03:23:40;;;;;;;4.00;3.53;;;;;;;4.68;73.74;96166.19;5052851;28;20211;-70
2021/12/24 03:26:09;;;;;;;3.80;3.50;;;;;;;4.63;73.18;96158.69;5056693;28;20293;-72
2021/12/24 03:28:36;;;;;;;4.10;3.70;;;;;;;4.61;74.15;96157.97;5056595;28;20654;-71
2021/12/24 03:31:03;;;;;;;3.97;3.57;;;;;;;4.58;73.52;96160.81;5064289;28;20665;-71
2021/12/24 03:33:30;;;;;;;4.33;3.80;;;;;;;4.51;73.33;96155.22;5044629;28;20218;-71
2021/12/24 03:35:57;;;;;;;3.87;3.53;;;;;;;4.52;74.43;96150.84;5048619;28;20225;-71
2021/12/24 03:38:23;;;;;;;3.53;3.23;;;;;;;4.53;73.82;96145.47;5044740;28;20203;-72
2021/12/24 03:40:51;;;;;;;3.97;3.67;;;;;;;4.54;73.73;96133.22;5046521;28;20257;-72
2021/12/24 03:43:18;;;;;;;4.23;3.83;;;;;;;4.53;74.15;96136.81;5046737;28;20196;-72
2021/12/24 03:45:55;;;;;;;3.57;3.30;;;;;;;4.58;73.61;96133.81;5048626;28;20207;-72
2021/12/24 03:48:26;;;;;;;4.17;3.37;;;;;;;4.65;73.75;96124.53;5048535;28;20231;-71
2021/12/24 03:50:59;;;;;;;3.90;3.13;;;;;;;4.67;73.46;96117.41;5055163;28;20345;-72
2021/12/24 03:56:11;;;;;;;5.20;3.73;;;;;;;4.70;73.96;96114.53;5048215;28;20379;-71
2021/12/24 03:58:37;;;;;;;3.57;3.27;;;;;;;4.64;74.09;96110.59;5052167;28;20547;-71
2021/12/24 04:01:04;;;;;;;3.33;3.03;;;;;;;4.64;75.01;96120.25;5054514;28;20511;-71
2021/12/24 04:03:30;;;;;;;3.77;3.47;;;;;;;4.59;74.81;96117.16;5054721;28;20639;-71
2021/12/24 04:05:57;;;;;;;3.47;3.17;;;;;;;4.53;75.92;96120.25;5054374;28;20202;-71
2021/12/24 04:08:23;;;;;;;3.60;3.30;;;;;;;4.49;75.11;96119.66;5055133;28;20234;-71
2021/12/24 04:10:50;;;;;;;3.43;3.20;;;;;;;4.54;75.26;96120.13;5054776;28;20207;-71
2021/12/24 04:13:18;;;;;;;3.30;3.00;;;;;;;4.43;76.09;96114.88;5054608;28;20219;-71
2021/12/24 04:15:46;;;;;;;3.70;3.40;;;;;;;4.36;75.70;96108.44;5054555;28;20219;-71
2021/12/24 04:18:18;;;;;;;3.90;3.50;;;;;;;4.45;75.37;96108.59;5056987;28;20221;-72
2021/12/24 04:26:13;;;;;;;3.60;3.30;;;;;;;4.49;75.80;96102.19;5068799;28;20205;-72
2021/12/24 04:28:41;;;;;;;3.80;3.50;;;;;;;4.59;75.34;96094.44;5072052;28;20324;-72
2021/12/24 04:31:07;;;;;;;3.50;3.00;;;;;;;4.69;74.82;96099.75;5078953;28;20606;-71
2021/12/24 04:33:38;;;;;;;3.20;3.00;;;;;;;4.74;74.77;96095.84;5078299;28;20210;-71
2021/12/24 04:36:20;;;;;;;3.60;3.20;;;;;;;4.72;74.96;96104.75;5066562;28;20213;-71
2021/12/24 04:52:53;;;;;;;3.47;2.90;;;;;;;5.08;73.08;96108.88;5058467;28;20218;-71
2021/12/24 05:03:36;;;;;;;3.37;2.97;;;;;;;5.07;74.48;96115.91;5057872;28;20183;-72
2021/12/24 05:06:11;;;;;;;3.07;2.80;;;;;;;5.05;73.16;96111.75;5057671;28;20653;-70
2021/12/24 05:08:48;;;;;;;3.10;2.80;;;;;;;5.07;73.26;96109.81;5058105;28;20250;-70
2021/12/24 05:11:15;;;;;;;3.20;2.90;;;;;;;5.15;73.24;96097.78;5057874;28;20237;-71
2021/12/24 05:13:41;;;;;;;3.73;2.70;;;;;;;5.23;72.50;96099.78;5057633;28;20234;-72
2021/12/24 05:16:19;;;;;;;2.77;2.50;;;;;;;5.36;71.26;96098.66;5058215;28;20206;-71
2021/12/24 05:21:37;;;;;;;3.10;2.80;;;;;;;5.56;70.90;96097.06;5035482;28;20274;-71
2021/12/24 05:24:06;;;;;;;3.87;2.80;;;;;;;5.64;70.71;96091.16;5057530;28;20196;-70
2021/12/24 05:26:34;;;;;;;2.70;2.50;;;;;;;5.67;69.84;96099.59;5067381;28;20641;-70
2021/12/24 05:29:01;;;;;;;2.77;2.50;;;;;;;5.66;70.76;96092.72;5077360;28;20545;-71
2021/12/24 05:31:30;;;;;;;3.07;2.67;;;;;;;5.65;70.50;96083.16;5077347;28;20207;-72
2021/12/24 05:33:57;;;;;;;2.97;2.77;;;;;;;5.74;69.46;96081.59;5077528;28;20205;-71
2021/12/24 05:36:23;;;;;;;2.70;2.50;;;;;;;5.75;69.60;96081.44;5073907;28;20211;-72
2021/12/24 05:38:50;;;;;;;3.70;2.70;;;;;;;5.74;70.15;96094.72;5057042;28;20673;-71
2021/12/24 05:41:18;;;;;;;2.80;2.60;;;;;;;5.65;71.15;96083.16;5057117;28;20253;-71
2021/12/24 05:43:44;;;;;;;3.60;2.80;;;;;;;5.63;70.58;96087.72;5062547;28;20210;-71
2021/12/24 05:46:11;;;;;;;2.63;2.40;;;;;;;5.59;71.23;96078.44;5059140;28;20222;-72
2021/12/24 05:48:39;;;;;;;3.07;2.77;;;;;;;5.61;71.01;96088.78;5052165;28;20245;-70
2021/12/24 05:51:05;;;;;;;2.70;2.50;;;;;;;5.63;70.41;96094.75;5057305;28;20211;-70
2021/12/24 05:53:32;;;;;;;2.73;2.53;;;;;;;5.61;71.08;96089.63;5063049;28;20301;-72
2021/12/24 05:55:58;;;;;;;2.80;2.40;;;;;;;5.61;71.00;96089.63;5064820;28;20207;-71
2021/12/24 05:58:25;;;;;;;3.00;2.80;;;;;;;5.67;70.71;96096.97;5076177;28;20210;-71
2021/12/24 06:00:51;;;;;;;2.30;2.10;;;;;;;5.73;70.16;96098.28;5059294;28;20207;-72
2021/12/24 06:03:18;;;;;;;2.83;2.63;;;;;;;5.73;70.15;96100.91;5062393;28;20247;-72
2021/12/24 06:05:46;;;;;;;2.63;2.43;;;;;;;5.75;70.27;96104.22;5062562;28;20211;-72
2021/12/24 06:08:13;;;;;;;2.80;2.60;;;;;;;5.75;70.41;96102.44;5057906;28;20563;-72
2021/12/24 06:10:41;;;;;;;3.00;2.50;;;;;;;5.69;70.87;96102.94;5056817;28;20542;-72
2021/12/24 06:13:08;;;;;;;2.87;2.10;;;;;;;5.66;70.80;96111.06;5076814;28;20210;-71
2021/12/24 06:15:42;;;;;;;3.10;2.50;;;;;;;5.58;70.64;96117.91;5069706;28;20225;-72
2021/12/24 06:18:12;;;;;;;2.40;2.20;;;;;;;5.51;71.35;96125.44;5076570;28;20225;-71
2021/12/24 06:20:41;;;;;;;2.60;2.40;;;;;;;5.51;71.29;96121.03;5076721;28;20264;-72
2021/12/24 06:23:09;;;;;;;2.60;2.40;;;;;;;5.44;71.46;96114.63;5076786;28;20321;-71
2021/12/24 06:25:36;;;;;;;2.67;2.47;;;;;;;5.41;72.49;96124.53;5060581;28;20207;-71
2021/12/24 06:28:03;;;;;;;2.17;2.07;;;;;;;5.32;73.38;96120.00;5056287;28;20233;-71
2021/12/24 06:30:30;;;;;;;3.87;2.80;;;;;;;5.26;73.02;96123.13;5054357;28;20207;-72
2021/12/24 06:32:57;;;;;;;2.90;2.50;;;;;;;5.28;73.63;96129.09;5045157;28;20301;-71
2021/12/24 06:35:24;;;;;;;3.53;2.70;;;;;;;5.21;73.07;96127.94;5056298;28;20207;-70
2021/12/24 06:37:51;;;;;;;2.67;2.47;;;;;;;5.19;73.53;96120.16;5056386;28;20203;-71
2021/12/24 06:40:19;;;;;;;2.63;2.43;;;;;;;5.14;73.49;96118.84;5055364;28;20239;-72
2021/12/24 06:42:45;;;;;;;2.77;2.57;;;;;;;5.11;74.57;96119.09;5055525;28;20626;-71
2021/12/24 06:45:12;;;;;;;3.13;2.83;;;;;;;5.04;75.04;96124.00;5058426;28;20199;-72
2021/12/24 06:47:39;;;;;;;3.30;3.03;;;;;;;5.07;73.69;96125.53;5063135;28;20210;-72
2021/12/24 06:50:06;;;;;;;3.00;2.80;;;;;;;4.99;73.68;96116.50;5058774;28;20234;-72
2021/12/24 06:52:33;;;;;;;2.63;2.40;;;;;;;4.92;74.63;96128.44;5058014;28;20211;-72
2021/12/24 06:54:59;;;;;;;3.10;2.80;;;;;;;4.82;75.25;96117.00;5057668;28;20206;-72
2021/12/24 06:57:27;;;;;;;2.77;2.57;;;;;;;4.80;75.04;96121.56;5055966;28;20218;-72
2021/12/24 06:59:53;;;;;;;2.60;2.40;;;;;;;4.79;75.13;96119.03;5063665;28;20198;-71
2021/12/24 07:02:20;;;;;;;2.70;2.50;;;;;;;4.78;74.81;96115.56;5075362;28;20202;-72
2021/12/24 07:04:46;;;;;;;2.47;2.27;;;;;;;4.73;75.32;96111.66;5062768;28;20275;-72
2021/12/24 07:07:13;;;;;;;2.47;2.27;;;;;;;4.73;75.42;96116.91;5056119;28;20215;-71
2021/12/24 07:09:42;;;;;;;2.60;2.40;;;;;;;4.69;75.40;96105.84;5055907;28;20560;-71
2021/12/24 07:12:11;;;;;;;2.87;2.50;;;;;;;4.68;76.12;96098.94;5056457;28;20236;-72
2021/12/24 07:14:39;;;;;;;2.90;2.70;;;;;;;4.67;75.43;96118.22;5075064;28;20248;-72
2021/12/24 07:17:05;;;;;;;2.63;2.43;;;;;;;4.71;76.10;96124.06;5076422;28;20285;-71
2021/12/24 07:19:32;;;;;;;2.97;2.70;;;;;;;4.77;76.28;96119.19;5076599;28;20627;-72
2021/12/24 07:21:58;;;;;;;2.93;2.50;;;;;;;4.81;76.23;96125.00;5076661;28;20297;-71
2021/12/24 07:24:24;;;;;;;2.90;2.63;;;;;;;4.86;75.76;96121.06;5063257;28;20283;-71
2021/12/24 07:26:51;;;;;;;2.63;2.43;;;;;;;4.91;76.18;96105.81;5067480;28;20211;-72
2021/12/24 07:29:17;;;;;;;2.43;2.23;;;;;;;5.12;74.94;96112.91;5069736;28;20227;-71
2021/12/24 07:31:45;;;;;;;2.20;2.10;;;;;;;5.20;74.75;96111.38;5058352;28;20203;-72
2021/12/24 07:34:12;;;;;;;2.03;1.93;;;;;;;5.30;75.36;96116.69;5059299;28;20217;-72
2021/12/24 07:36:38;;;;;;;2.50;2.30;;;;;;;5.36;75.29;96121.44;5060239;28;20210;-72
2021/12/24 07:39:05;;;;;;;2.13;2.00;;;;;;;5.41;75.33;96120.13;5057425;28;20628;-72
2021/12/24 07:41:33;;;;;;;2.20;2.00;;;;;;;5.47;75.42;96121.41;5055021;28;20206;-72
2021/12/24 07:44:01;;;;;;;2.63;2.17;;;;;;;5.53;74.83;96113.84;5055348;28;20503;-71
2021/12/24 07:46:35;;;;;;;2.53;2.30;;;;;;;5.72;73.13;96117.59;5056676;28;20280;-72
2021/12/24 07:49:17;;;;;;;2.00;1.90;;;;;;;5.91;72.22;96117.78;5057050;28;20642;-72
2021/12/24 07:52:01;;;;;;;2.30;2.10;;;;;;;6.18;70.72;96109.38;5061236;28;20199;-72
2021/12/24 07:54:28;;;;;;;1.87;1.77;;;;;;;6.31;69.67;96089.00;5070704;28;20269;-71
2021/12/24 07:56:55;;;;;;;2.67;2.20;;;;;;;6.43;69.82;96101.94;5043177;28;20214;-71
2021/12/24 07:59:21;;;;;;;2.40;2.20;;;;;;;6.58;68.60;96107.66;5054361;28;20207;-72
2021/12/24 08:01:48;;;;;;;2.23;2.10;;;;;;;6.66;68.43;96099.13;5054835;28;20214;-72
2021/12/24 08:04:16;;;;;;;1.93;1.83;;;;;;;6.81;67.53;96097.78;5054565;28;20210;-71
2021/12/24 08:06:42;;;;;;;3.63;2.20;;;;;;;6.93;66.08;96102.81;5055422;28;20203;-72
2021/12/24 08:09:09;;;;;;;2.07;1.97;;;;;;;7.07;65.24;96087.63;5054797;28;20226;-72
2021/12/24 08:11:36;;;;;;;2.30;2.13;;;;;;;7.28;64.28;96083.09;5055215;28;20229;-72
2021/12/24 08:14:03;;;;;;;2.63;2.07;;;;;;;7.47;62.46;96078.66;5054566;28;20203;-72
2021/12/24 08:16:29;;;;;;;2.23;2.03;;;;;;;7.58;62.30;96085.59;5055561;28;20207;-72
2021/12/24 08:18:56;;;;;;;4.43;2.17;;;;;;;7.70;60.90;96087.13;5055047;28;20207;-70
2021/12/24 08:21:24;;;;;;;3.83;1.90;;;;;;;7.81;60.76;96089.63;5054861;28;20225;-71
2021/12/24 08:23:50;;;;;;;2.43;1.83;;;;;;;7.86;60.41;96087.41;5055078;28;20203;-71
2021/12/24 08:26:18;;;;;;;2.20;2.00;;;;;;;7.87;60.12;96086.44;5061462;28;20202;-71
2021/12/24 08:28:45;;;;;;;2.10;2.00;;;;;;;7.90;60.32;96083.50;5074550;28;20486;-70
2021/12/24 08:31:11;;;;;;;1.40;1.30;;;;;;;7.93;60.98;96093.78;5057971;28;20211;-71
2021/12/24 08:33:38;;;;;;;1.70;1.60;;;;;;;7.94;61.10;96090.16;5069924;28;20206;-71
2021/12/24 08:36:06;;;;;;;1.80;1.70;;;;;;;7.92;62.32;96101.81;5066035;28;20211;-71
2021/12/24 08:38:34;;;;;;;2.10;1.90;;;;;;;7.92;63.23;96097.38;5064418;28;20210;-71
2021/12/24 08:41:01;;;;;;;2.50;2.30;;;;;;;7.90;62.11;96088.78;5056161;28;20253;-71
2021/12/24 08:43:28;;;;;;;2.40;2.20;;;;;;;7.89;61.34;96079.25;5054988;28;20230;-71
2021/12/24 08:45:54;;;;;;;2.00;1.90;;;;;;;7.88;61.74;96082.84;5054618;28;20200;-71
2021/12/24 08:48:21;;;;;;;2.20;2.10;;;;;;;7.85;61.86;96083.13;5055344;28;20207;-72
2021/12/24 08:50:47;;;;;;;2.20;2.00;;;;;;;7.88;62.67;96079.38;5054695;28;20227;-72
2021/12/24 08:53:14;;;;;;;2.07;1.87;;;;;;;7.85;64.16;96083.13;5055280;28;20211;-71
2021/12/24 08:55:42;;;;;;;2.23;2.03;;;;;;;7.87;63.45;96081.16;5058252;28;20210;-71
2021/12/24 08:58:09;;;;;;;2.10;2.00;;;;;;;7.84;63.22;96084.09;5054968;28;20207;-72
2021/12/24 09:00:37;;;;;;;2.27;2.07;;;;;;;7.82;64.15;96080.78;5065415;28;20214;-71
2021/12/24 09:03:04;;;;;;;2.17;2.03;;;;;;;7.82;64.98;96080.78;5074324;28;20202;-72
2021/12/24 09:05:31;;;;;;;2.43;2.23;;;;;;;7.79;64.91;96075.78;5062391;28;20195;-71
2021/12/24 09:07:58;;;;;;;2.13;2.00;;;;;;;7.80;65.07;96066.91;5078131;28;20230;-72
2021/12/24 09:10:24;;;;;;;2.53;2.30;;;;;;;7.73;64.37;96073.69;5079881;28;20230;-72
2021/12/24 09:12:52;;;;;;;2.73;2.50;;;;;;;7.74;64.61;96078.00;5065777;28;20533;-71
2021/12/24 09:15:20;;;;;;;2.63;2.40;;;;;;;7.74;64.48;96078.00;5059884;28;20229;-72
2021/12/24 09:17:47;;;;;;;2.57;2.30;;;;;;;7.75;64.21;96074.41;5060788;28;20198;-72
2021/12/24 09:20:17;;;;;;;2.43;2.20;;;;;;;7.73;63.89;96076.31;5059960;28;20203;-72
2021/12/24 09:22:43;;;;;;;2.43;2.23;;;;;;;7.73;64.30;96080.75;5058760;28;20217;-72
2021/12/24 09:25:11;;;;;;;3.13;2.73;;;;;;;7.74;64.54;96083.25;5058623;28;20249;-69
2021/12/24 09:27:37;;;;;;;3.50;3.20;;;;;;;7.64;65.09;96090.31;5059124;28;20515;-70
2021/12/24 09:30:06;;;;;;;3.90;3.33;;;;;;;7.61;64.52;96087.16;5048615;28;20232;-72
2021/12/24 09:32:32;;;;;;;3.73;3.20;;;;;;;7.53;65.07;96082.56;5060011;28;20217;-70
2021/12/24 09:34:59;;;;;;;3.60;2.83;;;;;;;7.48;65.07;96082.13;5069289;28;20217;-70
2021/12/24 09:37:26;;;;;;;4.80;3.27;;;;;;;7.44;65.38;96084.22;5061327;28;20201;-72
2021/12/24 09:39:52;;;;;;;4.90;3.77;;;;;;;7.40;66.18;96089.91;5082065;28;20226;-70
2021/12/24 09:42:19;;;;;;;3.50;3.17;;;;;;;7.37;66.63;96095.41;5073461;28;20199;-72
2021/12/24 09:44:45;;;;;;;4.07;3.40;;;;;;;7.34;69.56;96091.28;5067276;28;20199;-72
2021/12/24 09:47:13;;;;;;;3.97;3.60;;;;;;;7.34;69.35;96082.53;5065620;28;20260;-72
2021/12/24 09:49:40;;;;;;;3.90;3.33;;;;;;;7.30;68.06;96083.78;5064485;28;20218;-71
2021/12/24 09:52:07;;;;;;;4.03;3.70;;;;;;;7.34;68.27;96069.41;5063636;28;20206;-72
2021/12/24 09:54:33;;;;;;;4.80;3.40;;;;;;;7.33;68.05;96068.56;5062507;28;20227;-71
2021/12/24 09:57:01;;;;;;;3.80;3.40;;;;;;;7.33;68.55;96067.75;5060167;28;20215;-71
2021/12/24 09:59:28;;;;;;;3.37;3.07;;;;;;;7.32;69.35;96063.44;5057717;28;20606;-71
2021/12/24 10:01:56;;;;;;;3.70;3.30;;;;;;;7.33;70.15;96057.22;5065684;28;20206;-71
2021/12/24 10:04:28;;;;;;;4.17;3.50;;;;;;;7.42;68.44;96056.38;5067349;28;20207;-70
2021/12/24 10:06:56;;;;;;;4.57;4.07;;;;;;;7.38;68.69;96049.75;5056712;28;20203;-71
2021/12/24 10:09:29;;;;;;;3.80;3.50;;;;;;;7.38;69.60;96050.56;5056333;28;20203;-72
2021/12/24 10:11:58;;;;;;;3.80;3.40;;;;;;;7.40;70.57;96047.81;5056493;28;20214;-72
2021/12/24 10:14:30;;;;;;;3.83;3.53;;;;;;;7.40;69.75;96048.63;5056323;28;20207;-72
2021/12/24 10:16:57;;;;;;;3.40;3.10;;;;;;;7.42;69.99;96040.63;5055990;28;20210;-71
2021/12/24 10:19:25;;;;;;;3.77;3.47;;;;;;;7.42;69.57;96035.34;5056492;28;20589;-72
2021/12/24 10:21:59;;;;;;;3.40;3.10;;;;;;;7.42;70.79;96032.72;5056725;28;20211;-72
2021/12/24 10:24:26;;;;;;;3.73;3.43;;;;;;;7.42;70.13;96024.81;5043218;28;20194;-71
2021/12/24 10:26:54;;;;;;;3.97;3.20;;;;;;;7.45;71.14;96024.53;5056080;28;20207;-72
2021/12/24 10:29:28;;;;;;;3.83;3.53;;;;;;;7.52;70.71;96025.66;5063144;28;20202;-72
2021/12/24 10:31:57;;;;;;;3.80;3.50;;;;;;;7.60;69.85;96015.28;5076389;28;20523;-71
2021/12/24 10:34:26;;;;;;;4.57;3.87;;;;;;;7.70;69.14;96020.50;5056242;28;20203;-72
2021/12/24 10:37:12;;;;;;;4.17;3.83;;;;;;;7.78;69.95;96013.59;5062611;28;20210;-72
2021/12/24 10:39:41;;;;;;;3.40;3.10;;;;;;;7.84;68.59;96006.91;5067839;28;20315;-72
2021/12/24 10:42:12;;;;;;;4.37;3.63;;;;;;;7.94;68.86;95997.19;5062296;28;20228;-72
2021/12/24 10:44:39;;;;;;;3.67;3.27;;;;;;;7.95;67.26;95991.78;5075665;28;20256;-72
2021/12/24 10:47:10;;;;;;;4.50;3.73;;;;;;;8.07;67.42;95987.19;5080662;28;20307;-72
2021/12/24 10:55:31;;;;;;;4.50;3.37;;;;;;;8.46;65.29;95993.16;5057036;28;20183;-72
2021/12/24 10:57:59;;;;;;;4.07;3.60;;;;;;;8.51;65.09;95998.81;5059551;28;20228;-72
2021/12/24 11:00:28;;;;;;;3.60;3.30;;;;;;;8.61;64.10;96001.41;5075917;28;20207;-72
2021/12/24 11:02:58;;;;;;;4.93;4.40;;;;;;;8.61;63.72;96009.31;5077798;28;20218;-72
2021/12/24 11:05:30;;;;;;;5.27;4.77;;;;;;;8.58;63.32;96018.34;5077114;28;20274;-72
2021/12/24 11:07:58;;;;;;;6.67;5.53;;;;;;;8.60;63.39;96011.13;5076248;28;20210;-72
2021/12/24 11:10:26;;;;;;;6.23;5.13;;;;;;;8.55;63.07;96007.25;5057537;28;20234;-72
2021/12/24 11:12:54;;;;;;;5.10;4.60;;;;;;;8.50;63.04;96011.16;5057352;28;20282;-72
2021/12/24 11:15:30;;;;;;;4.87;4.17;;;;;;;8.51;63.45;95993.53;5056348;28;20271;-72
2021/12/24 11:17:58;;;;;;;4.60;4.20;;;;;;;8.46;63.26;95991.38;5056694;28;20640;-72
2021/12/24 11:20:28;;;;;;;3.97;3.67;;;;;;;8.48;62.74;95996.47;5056446;28;20313;-72
2021/12/24 11:23:00;;;;;;;3.80;3.50;;;;;;;8.39;63.39;95985.03;5056519;28;20207;-72
2021/12/24 11:25:29;;;;;;;3.87;3.57;;;;;;;8.41;63.37;95990.13;5056828;28;20204;-71
2021/12/24 11:27:56;;;;;;;3.87;3.57;;;;;;;8.38;63.54;95982.53;5076318;28;20213;-71
2021/12/24 11:30:23;;;;;;;3.67;3.37;;;;;;;8.37;62.34;95980.84;5075800;28;20234;-72
2021/12/24 11:32:50;;;;;;;3.57;3.27;;;;;;;8.36;62.72;95977.38;5058789;28;20199;-72
2021/12/24 11:35:17;;;;;;;3.70;3.40;;;;;;;8.35;63.40;95972.28;5056901;28;20498;-72
2021/12/24 11:37:47;;;;;;;5.30;4.80;;;;;;;8.31;64.17;95976.19;5073144;28;20214;-72
2021/12/24 11:40:14;;;;;;;9.87;7.63;;;;;;;8.25;64.08;95974.09;5048646;28;20238;-71
2021/12/24 11:42:42;;;;;;;8.93;7.13;;;;;;;8.25;63.24;95979.38;5042646;28;20283;-71
2021/12/24 11:45:10;;;;;;;6.50;4.87;;;;;;;8.24;63.61;95975.06;5048713;28;20294;-72
2021/12/24 11:47:37;;;;;;;5.23;4.50;;;;;;;8.25;64.15;95968.81;5041426;28;20819;-72
2021/12/24 11:50:05;;;;;;;5.63;5.03;;;;;;;8.29;63.93;95973.66;5045956;28;20238;-70
2021/12/24 11:52:32;;;;;;;4.90;4.40;;;;;;;8.30;64.41;95969.25;5044997;28;20619;-71
2021/12/24 11:55:00;;;;;;;4.67;4.20;;;;;;;8.31;64.09;95955.09;5049491;28;20207;-72
2021/12/24 11:57:27;;;;;;;4.13;3.73;;;;;;;8.34;63.51;95960.91;5045325;28;20195;-71
2021/12/24 11:59:53;;;;;;;4.20;3.80;;;;;;;8.34;65.27;95965.34;5047965;28;20674;-72
2021/12/24 12:02:45;;;;;;;4.40;4.00;;;;;;;8.34;64.74;95960.06;5046211;28;20214;-71
2021/12/24 12:05:14;;;;;;;4.83;4.23;;;;;;;8.30;65.79;95961.34;5051467;28;20199;-71
2021/12/24 12:07:41;;;;;;;4.80;3.90;;;;;;;8.21;64.21;95959.56;5046115;28;20210;-72
2021/12/24 12:10:09;;;;;;;4.47;4.07;;;;;;;8.22;65.13;95955.97;5046920;28;20212;-71
2021/12/24 12:12:37;;;;;;;4.03;3.70;;;;;;;8.14;64.54;95950.56;5046592;28;20210;-71
2021/12/24 12:15:24;;;;;;;4.13;3.80;;;;;;;8.11;64.32;95948.22;5049527;28;20657;-71
2021/12/24 12:17:51;;;;;;;4.27;3.50;;;;;;;8.16;64.75;95936.28;5046144;28;20209;-72
2021/12/24 12:20:40;;;;;;;4.80;3.50;;;;;;;8.18;64.56;95936.97;5045219;28;20206;-72
2021/12/24 12:23:13;;;;;;;3.80;3.50;;;;;;;8.19;66.22;95924.63;5044670;28;20261;-71
2021/12/24 12:25:42;;;;;;;4.30;3.83;;;;;;;8.17;65.02;95923.94;5047621;28;20313;-71
2021/12/24 12:28:15;;;;;;;3.40;3.20;;;;;;;8.17;64.93;95921.31;5048985;28;20937;-71
2021/12/24 12:30:48;;;;;;;4.90;3.77;;;;;;;8.18;64.54;95920.34;5049134;28;20239;-71
2021/12/24 12:33:16;;;;;;;3.77;3.47;;;;;;;8.24;65.61;95917.13;5053479;28;20220;-72
2021/12/24 12:35:44;;;;;;;3.90;3.60;;;;;;;8.31;64.62;95913.78;5050719;28;20199;-70
2021/12/24 12:38:33;;;;;;;3.50;3.20;;;;;;;8.34;64.49;95913.50;5047924;28;20195;-71
2021/12/24 12:41:25;;;;;;;3.50;3.20;;;;;;;8.41;64.29;95895.28;5048415;28;20258;-72
2021/12/24 12:43:53;;;;;;;4.40;4.00;;;;;;;8.36;63.07;95902.81;5051049;28;20218;-71
2021/12/24 12:46:21;;;;;;;3.87;3.57;;;;;;;8.43;63.61;95903.88;5048935;28;20620;-71
2021/12/24 12:48:53;;;;;;;3.93;3.63;;;;;;;8.41;63.31;95916.34;5049212;28;20203;-72
2021/12/24 12:51:22;;;;;;;4.87;3.57;;;;;;;8.37;63.24;95902.66;5054935;28;20234;-72
2021/12/24 12:53:51;;;;;;;4.63;3.60;;;;;;;8.35;65.22;95895.88;5047655;28;20555;-71
2021/12/24 12:56:21;;;;;;;3.70;3.40;;;;;;;8.34;65.20;95891.59;5054277;28;20276;-71
2021/12/24 12:58:49;;;;;;;3.83;3.47;;;;;;;8.30;65.89;95890.22;5051825;28;20297;-70
2021/12/24 13:01:18;;;;;;;3.93;3.60;;;;;;;8.30;69.39;95884.94;5050386;28;20203;-71
2021/12/24 13:04:10;;;;;;;3.53;3.23;;;;;;;8.22;73.60;95876.94;5048327;28;20226;-70
2021/12/24 13:06:52;;;;;;;4.30;3.73;;;;;;;8.12;72.23;95870.88;5050858;28;20214;-72